createdAt,value
2017-10-15T00:00:47.834Z,0.00
2017-10-15T00:01:47.872Z,0.00
2017-10-15T00:02:47.906Z,0.00
2017-10-15T00:03:47.941Z,0.00
2017-10-15T00:04:47.977Z,0.00
2017-10-15T00:05:48.017Z,0.00
2017-10-15T00:06:48.050Z,0.00
2017-10-15T00:07:48.084Z,0.00
2017-10-15T00:08:48.120Z,0.00
2017-10-15T00:09:48.157Z,0.00
2017-10-15T00:10:48.194Z,0.00
2017-10-15T00:11:48.230Z,0.00
2017-10-15T00:12:48.265Z,0.00
2017-10-15T00:13:48.303Z,0.00
2017-10-15T00:14:48.337Z,0.00
2017-10-15T00:15:48.373Z,0.00
2017-10-15T00:16:48.412Z,0.00
2017-10-15T00:17:48.447Z,0.00
2017-10-15T00:18:48.485Z,0.00
2017-10-15T00:19:48.519Z,0.00
2017-10-15T00:20:48.554Z,0.00
2017-10-15T00:21:48.590Z,0.00
2017-10-15T00:22:48.627Z,0.00
2017-10-15T00:23:48.660Z,0.00
2017-10-15T00:24:48.697Z,0.00
2017-10-15T00:25:48.743Z,0.00
2017-10-15T00:26:49.751Z,0.00
2017-10-15T00:27:48.804Z,0.00
2017-10-15T00:28:48.841Z,0.00
2017-10-15T00:29:48.878Z,0.00
2017-10-15T00:30:48.913Z,0.00
2017-10-15T00:31:48.950Z,0.00
2017-10-15T00:32:48.984Z,0.00
2017-10-15T00:33:49.019Z,0.00
2017-10-15T00:34:49.053Z,0.00
2017-10-15T00:35:49.095Z,0.00
2017-10-15T00:36:49.129Z,0.00
2017-10-15T00:37:49.343Z,0.00
2017-10-15T00:38:49.200Z,0.00
2017-10-15T00:39:49.237Z,0.00
2017-10-15T00:40:49.271Z,0.00
2017-10-15T00:41:49.305Z,0.00
2017-10-15T00:42:49.351Z,0.00
2017-10-15T00:43:49.382Z,0.00
2017-10-15T00:44:49.418Z,0.00
2017-10-15T00:45:49.452Z,0.00
2017-10-15T00:46:49.491Z,0.00
2017-10-15T00:47:49.521Z,0.00
2017-10-15T00:48:49.564Z,0.00
2017-10-15T00:49:49.593Z,0.00
2017-10-15T00:50:49.632Z,0.00
2017-10-15T00:51:49.683Z,0.00
2017-10-15T00:52:49.702Z,0.00
2017-10-15T00:53:49.754Z,0.00
2017-10-15T00:54:49.774Z,0.00
2017-10-15T00:55:49.809Z,0.00
2017-10-15T00:56:49.848Z,0.00
2017-10-15T00:57:49.879Z,0.00
2017-10-15T00:58:49.915Z,0.00
2017-10-15T00:59:49.955Z,0.00
2017-10-15T01:00:49.988Z,0.00
2017-10-15T01:01:50.024Z,0.00
2017-10-15T01:02:50.058Z,0.00
2017-10-15T01:03:50.093Z,0.00
2017-10-15T01:04:50.130Z,0.00
2017-10-15T01:05:50.179Z,0.00
2017-10-15T01:06:50.206Z,0.00
2017-10-15T01:07:50.240Z,0.00
2017-10-15T01:08:50.274Z,0.00
2017-10-15T01:09:50.309Z,0.00
2017-10-15T01:10:50.346Z,0.00
2017-10-15T01:11:50.388Z,0.00
2017-10-15T01:12:50.418Z,0.00
2017-10-15T01:13:50.453Z,0.00
2017-10-15T01:14:50.493Z,0.00
2017-10-15T01:15:50.526Z,0.00
2017-10-15T01:16:50.561Z,0.00
2017-10-15T01:17:50.593Z,0.00
2017-10-15T01:18:50.633Z,0.00
2017-10-15T01:19:50.674Z,0.00
2017-10-15T01:20:50.700Z,0.00
2017-10-15T01:21:50.742Z,0.00
2017-10-15T01:22:50.773Z,0.00
2017-10-15T01:23:50.807Z,0.00
2017-10-15T01:24:50.842Z,0.00
2017-10-15T01:25:50.887Z,0.00
2017-10-15T01:26:50.922Z,0.00
2017-10-15T01:27:50.950Z,0.00
2017-10-15T01:28:51.036Z,0.00
2017-10-15T01:29:51.022Z,0.00
2017-10-15T01:30:51.060Z,0.00
2017-10-15T01:31:51.094Z,0.00
2017-10-15T01:32:51.127Z,0.00
2017-10-15T01:33:51.166Z,0.00
2017-10-15T01:34:51.199Z,0.00
2017-10-15T01:35:51.233Z,0.00
2017-10-15T01:36:51.272Z,0.00
2017-10-15T01:37:51.308Z,0.00
2017-10-15T01:38:51.342Z,0.00
2017-10-15T01:39:51.385Z,0.00
2017-10-15T01:40:51.420Z,0.00
2017-10-15T01:41:51.450Z,0.00
2017-10-15T01:42:51.483Z,0.00
2017-10-15T01:43:51.521Z,0.00
2017-10-15T01:44:51.564Z,0.00
2017-10-15T01:45:51.591Z,0.00
2017-10-15T01:46:51.627Z,0.00
2017-10-15T01:47:51.660Z,0.00
2017-10-15T01:48:51.698Z,0.00
2017-10-15T01:49:51.741Z,0.00
2017-10-15T01:50:51.772Z,0.00
2017-10-15T01:51:51.807Z,0.00
2017-10-15T01:52:51.839Z,0.00
2017-10-15T01:53:51.878Z,0.00
2017-10-15T01:54:51.912Z,0.00
2017-10-15T01:55:51.949Z,0.00
2017-10-15T01:56:51.981Z,0.00
2017-10-15T01:57:52.018Z,0.00
2017-10-15T01:58:52.053Z,0.00
2017-10-15T01:59:52.088Z,0.00
2017-10-15T02:00:52.123Z,0.00
2017-10-15T02:01:52.160Z,0.00
2017-10-15T02:02:52.193Z,0.00
2017-10-15T02:03:52.229Z,0.00
2017-10-15T02:04:52.272Z,0.00
2017-10-15T02:05:52.300Z,0.00
2017-10-15T02:06:52.338Z,0.00
2017-10-15T02:07:52.371Z,0.00
2017-10-15T02:08:52.406Z,0.00
2017-10-15T02:09:52.447Z,0.00
2017-10-15T02:10:52.476Z,0.00
2017-10-15T02:11:52.513Z,0.00
2017-10-15T02:12:52.550Z,0.00
2017-10-15T02:13:52.587Z,0.00
2017-10-15T02:14:52.621Z,0.00
2017-10-15T02:15:52.660Z,0.00
2017-10-15T02:16:52.700Z,0.00
2017-10-15T02:17:52.724Z,0.00
2017-10-15T02:18:52.758Z,0.00
2017-10-15T02:19:52.796Z,0.00
2017-10-15T02:20:52.830Z,0.00
2017-10-15T02:21:52.873Z,0.00
2017-10-15T02:22:52.904Z,0.00
2017-10-15T02:23:52.936Z,0.00
2017-10-15T02:24:52.973Z,0.00
2017-10-15T02:25:53.016Z,0.00
2017-10-15T02:26:53.047Z,0.00
2017-10-15T02:27:53.076Z,0.00
2017-10-15T02:28:53.120Z,0.00
2017-10-15T02:29:53.161Z,0.00
2017-10-15T02:30:53.184Z,0.00
2017-10-15T02:31:53.221Z,0.00
2017-10-15T02:32:53.264Z,0.00
2017-10-15T02:33:53.290Z,0.00
2017-10-15T02:34:53.333Z,0.00
2017-10-15T02:35:53.357Z,0.00
2017-10-15T02:36:53.400Z,0.00
2017-10-15T02:37:53.430Z,0.00
2017-10-15T02:38:53.466Z,0.00
2017-10-15T02:39:53.498Z,0.00
2017-10-15T02:40:53.535Z,0.00
2017-10-15T02:41:53.574Z,0.00
2017-10-15T02:42:53.605Z,0.00
2017-10-15T02:43:53.653Z,0.00
2017-10-15T02:44:53.676Z,0.00
2017-10-15T02:45:53.709Z,0.00
2017-10-15T02:46:53.750Z,0.00
2017-10-15T02:47:53.783Z,0.00
2017-10-15T02:48:53.820Z,0.00
2017-10-15T02:49:53.865Z,0.00
2017-10-15T02:50:53.886Z,0.00
2017-10-15T02:51:53.925Z,0.00
2017-10-15T02:52:53.966Z,0.00
2017-10-15T02:53:53.998Z,0.00
2017-10-15T02:54:54.031Z,0.00
2017-10-15T02:55:54.070Z,0.00
2017-10-15T02:56:54.098Z,0.00
2017-10-15T02:57:54.151Z,0.00
2017-10-15T02:58:54.168Z,0.00
2017-10-15T02:59:54.203Z,0.00
2017-10-15T03:00:54.235Z,0.00
2017-10-15T03:01:54.278Z,0.00
2017-10-15T03:02:54.308Z,0.00
2017-10-15T03:03:54.342Z,0.00
2017-10-15T03:04:54.378Z,0.00
2017-10-15T03:05:54.411Z,0.00
2017-10-15T03:06:54.452Z,0.00
2017-10-15T03:07:54.484Z,0.00
2017-10-15T03:08:54.537Z,0.00
2017-10-15T03:09:54.555Z,0.00
2017-10-15T03:10:54.588Z,0.00
2017-10-15T03:11:54.628Z,0.00
2017-10-15T03:12:54.658Z,0.00
2017-10-15T03:13:54.699Z,0.00
2017-10-15T03:14:54.727Z,0.00
2017-10-15T03:15:54.762Z,0.00
2017-10-15T03:16:54.850Z,0.00
2017-10-15T03:17:54.835Z,0.00
2017-10-15T03:18:54.869Z,0.00
2017-10-15T03:19:54.904Z,0.00
2017-10-15T03:20:54.940Z,0.00
2017-10-15T03:21:54.974Z,0.00
2017-10-15T03:22:55.009Z,0.00
2017-10-15T03:23:55.042Z,0.00
2017-10-15T03:24:55.080Z,0.00
2017-10-15T03:25:55.120Z,0.00
2017-10-15T03:26:55.149Z,0.00
2017-10-15T03:27:55.183Z,0.00
2017-10-15T03:28:55.221Z,0.00
2017-10-15T03:29:55.255Z,0.00
2017-10-15T03:30:55.290Z,0.00
2017-10-15T03:31:55.325Z,0.00
2017-10-15T03:32:55.359Z,0.00
2017-10-15T03:33:55.396Z,0.00
2017-10-15T03:34:55.428Z,0.00
2017-10-15T03:35:55.467Z,0.00
2017-10-15T03:36:55.510Z,0.00
2017-10-15T03:37:55.533Z,0.00
2017-10-15T03:38:55.569Z,0.00
2017-10-15T03:39:55.605Z,0.00
2017-10-15T03:40:55.642Z,0.00
2017-10-15T03:41:55.676Z,0.00
2017-10-15T03:42:55.712Z,0.00
2017-10-15T03:43:55.743Z,0.00
2017-10-15T03:44:55.778Z,0.00
2017-10-15T03:45:55.813Z,0.00
2017-10-15T03:46:55.854Z,0.00
2017-10-15T03:47:55.890Z,0.00
2017-10-15T03:48:55.919Z,0.00
2017-10-15T03:49:55.955Z,0.00
2017-10-15T03:50:55.990Z,0.00
2017-10-15T03:51:56.028Z,0.00
2017-10-15T03:52:56.057Z,0.00
2017-10-15T03:53:56.095Z,0.00
2017-10-15T03:54:56.130Z,0.00
2017-10-15T03:55:56.166Z,0.00
2017-10-15T03:56:56.204Z,0.00
2017-10-15T03:57:56.235Z,0.00
2017-10-15T03:58:56.271Z,0.00
2017-10-15T03:59:56.303Z,0.00
2017-10-15T04:00:56.336Z,0.00
2017-10-15T04:01:56.383Z,0.00
2017-10-15T04:02:56.408Z,0.00
2017-10-15T04:03:56.444Z,0.00
2017-10-15T04:04:56.477Z,0.00
2017-10-15T04:05:56.514Z,0.00
2017-10-15T04:06:56.552Z,0.00
2017-10-15T04:07:56.582Z,0.00
2017-10-15T04:08:56.615Z,0.00
2017-10-15T04:09:56.651Z,0.00
2017-10-15T04:10:56.685Z,0.00
2017-10-15T04:11:56.724Z,0.00
2017-10-15T04:12:56.755Z,0.00
2017-10-15T04:13:56.791Z,0.00
2017-10-15T04:14:56.827Z,0.00
2017-10-15T04:15:56.877Z,0.00
2017-10-15T04:16:56.898Z,0.00
2017-10-15T04:17:56.929Z,0.00
2017-10-15T04:18:56.968Z,0.00
2017-10-15T04:19:57.000Z,0.00
2017-10-15T04:20:57.042Z,0.00
2017-10-15T04:21:57.071Z,0.00
2017-10-15T04:22:57.104Z,0.00
2017-10-15T04:23:57.141Z,0.00
2017-10-15T04:24:57.179Z,0.00
2017-10-15T04:25:57.215Z,0.00
2017-10-15T04:26:57.245Z,0.00
2017-10-15T04:27:57.280Z,0.00
2017-10-15T04:28:57.313Z,0.00
2017-10-15T04:29:57.351Z,0.00
2017-10-15T04:30:57.386Z,0.00
2017-10-15T04:31:57.429Z,0.00
2017-10-15T04:32:57.456Z,0.00
2017-10-15T04:33:57.491Z,0.00
2017-10-15T04:34:57.524Z,0.00
2017-10-15T04:35:57.557Z,0.00
2017-10-15T04:36:57.595Z,0.00
2017-10-15T04:37:57.627Z,0.00
2017-10-15T04:38:57.662Z,0.00
2017-10-15T04:39:57.702Z,0.00
2017-10-15T04:40:57.732Z,0.00
2017-10-15T04:41:57.771Z,0.00
2017-10-15T04:42:57.803Z,0.00
2017-10-15T04:43:57.832Z,0.00
2017-10-15T04:44:57.868Z,0.00
2017-10-15T04:45:57.904Z,0.00
2017-10-15T04:46:57.938Z,0.00
2017-10-15T04:47:57.982Z,0.00
2017-10-15T04:48:58.012Z,0.00
2017-10-15T04:49:58.047Z,0.00
2017-10-15T04:50:58.081Z,0.00
2017-10-15T04:51:58.113Z,0.00
2017-10-15T04:52:58.148Z,0.00
2017-10-15T04:53:58.182Z,0.00
2017-10-15T04:54:58.217Z,0.00
2017-10-15T04:55:58.250Z,0.00
2017-10-15T04:56:58.288Z,0.00
2017-10-15T04:57:58.320Z,0.00
2017-10-15T04:58:58.369Z,0.00
2017-10-15T04:59:58.391Z,0.00
2017-10-15T05:00:58.435Z,0.00
2017-10-15T05:01:58.465Z,0.00
2017-10-15T05:02:58.497Z,0.00
2017-10-15T05:03:58.529Z,0.00
2017-10-15T05:04:58.561Z,0.00
2017-10-15T05:05:58.596Z,0.00
2017-10-15T05:06:58.632Z,0.00
2017-10-15T05:07:58.665Z,0.00
2017-10-15T05:08:58.700Z,0.00
2017-10-15T05:09:58.734Z,4.00
2017-10-15T05:10:58.782Z,4.00
2017-10-15T05:11:58.817Z,0.00
2017-10-15T05:12:58.840Z,4.00
2017-10-15T05:13:58.877Z,4.00
2017-10-15T05:14:58.907Z,4.00
2017-10-15T05:15:58.942Z,8.00
2017-10-15T05:16:58.977Z,8.00
2017-10-15T05:17:59.012Z,12.00
2017-10-15T05:18:59.046Z,12.00
2017-10-15T05:19:59.083Z,16.00
2017-10-15T05:20:59.117Z,16.00
2017-10-15T05:21:59.151Z,20.00
2017-10-15T05:22:59.191Z,24.00
2017-10-15T05:23:59.218Z,24.00
2017-10-15T05:24:59.262Z,32.00
2017-10-15T05:25:59.287Z,36.00
2017-10-15T05:26:59.330Z,44.00
2017-10-15T05:27:59.355Z,44.00
2017-10-15T05:28:59.392Z,52.00
2017-10-15T05:29:59.425Z,56.00
2017-10-15T05:30:59.461Z,68.00
2017-10-15T05:31:59.497Z,72.00
2017-10-15T05:32:59.532Z,80.00
2017-10-15T05:33:59.563Z,88.00
2017-10-15T05:34:59.598Z,96.00
2017-10-15T05:35:59.635Z,100.00
2017-10-15T05:36:59.673Z,112.00
2017-10-15T05:37:59.702Z,116.00
2017-10-15T05:38:59.737Z,124.00
2017-10-15T05:39:59.779Z,132.00
2017-10-15T05:40:59.805Z,140.00
2017-10-15T05:41:59.842Z,152.00
2017-10-15T05:42:59.878Z,156.00
2017-10-15T05:43:59.907Z,164.00
2017-10-15T05:44:59.941Z,172.00
2017-10-15T05:45:59.979Z,180.00
2017-10-15T05:47:00.019Z,188.00
2017-10-15T05:48:00.047Z,196.00
2017-10-15T05:49:00.085Z,204.00
2017-10-15T05:50:00.117Z,208.00
2017-10-15T05:51:00.151Z,216.00
2017-10-15T05:52:00.189Z,224.00
2017-10-15T05:53:00.220Z,232.00
2017-10-15T05:54:00.260Z,240.00
2017-10-15T05:55:00.297Z,248.00
2017-10-15T05:56:00.329Z,256.00
2017-10-15T05:57:00.361Z,264.00
2017-10-15T05:58:00.393Z,272.00
2017-10-15T05:59:00.431Z,280.00
2017-10-15T06:00:00.459Z,292.00
2017-10-15T06:01:00.493Z,296.00
2017-10-15T06:02:00.530Z,308.00
2017-10-15T06:03:00.563Z,316.00
2017-10-15T06:04:00.601Z,328.00
2017-10-15T06:05:00.633Z,336.00
2017-10-15T06:06:00.671Z,344.00
2017-10-15T06:07:00.711Z,356.00
2017-10-15T06:08:00.738Z,364.00
2017-10-15T06:09:00.771Z,372.00
2017-10-15T06:10:00.807Z,384.00
2017-10-15T06:11:00.843Z,396.00
2017-10-15T06:12:00.884Z,408.00
2017-10-15T06:13:00.912Z,420.00
2017-10-15T06:14:00.942Z,432.00
2017-10-15T06:15:00.980Z,444.00
2017-10-15T06:16:01.012Z,452.00
2017-10-15T06:17:01.050Z,460.00
2017-10-15T06:18:01.083Z,464.00
2017-10-15T06:19:01.115Z,472.00
2017-10-15T06:20:01.156Z,480.00
2017-10-15T06:21:01.185Z,484.00
2017-10-15T06:22:01.218Z,492.00
2017-10-15T06:23:01.254Z,496.00
2017-10-15T06:24:01.292Z,500.00
2017-10-15T06:25:01.325Z,508.00
2017-10-15T06:26:01.357Z,508.00
2017-10-15T06:27:01.404Z,516.00
2017-10-15T06:28:01.435Z,520.00
2017-10-15T06:29:01.463Z,528.00
2017-10-15T06:30:01.496Z,536.00
2017-10-15T06:31:01.531Z,540.00
2017-10-15T06:32:01.565Z,544.00
2017-10-15T06:33:01.600Z,548.00
2017-10-15T06:34:01.636Z,552.00
2017-10-15T06:35:01.668Z,560.00
2017-10-15T06:36:01.702Z,568.00
2017-10-15T06:37:01.737Z,572.00
2017-10-15T06:38:01.781Z,576.00
2017-10-15T06:39:01.810Z,584.00
2017-10-15T06:40:01.843Z,588.00
2017-10-15T06:41:01.877Z,596.00
2017-10-15T06:42:01.915Z,604.00
2017-10-15T06:43:01.948Z,612.00
2017-10-15T06:44:01.980Z,620.00
2017-10-15T06:45:02.014Z,628.00
2017-10-15T06:46:02.052Z,636.00
2017-10-15T06:47:02.096Z,644.00
2017-10-15T06:48:02.118Z,656.00
2017-10-15T06:49:02.155Z,664.00
2017-10-15T06:50:02.188Z,672.00
2017-10-15T06:51:02.223Z,680.00
2017-10-15T06:52:02.258Z,688.00
2017-10-15T06:53:02.289Z,700.00
2017-10-15T06:54:02.326Z,708.00
2017-10-15T06:55:02.368Z,720.00
2017-10-15T06:56:02.397Z,728.00
2017-10-15T06:57:02.445Z,740.00
2017-10-15T06:58:02.469Z,752.00
2017-10-15T06:59:02.502Z,764.00
2017-10-15T07:00:02.534Z,776.00
2017-10-15T07:01:02.573Z,788.00
2017-10-15T07:02:02.612Z,800.00
2017-10-15T07:03:02.642Z,808.00
2017-10-15T07:04:02.678Z,824.00
2017-10-15T07:05:02.709Z,832.00
2017-10-15T07:06:02.745Z,844.00
2017-10-15T07:07:02.784Z,852.00
2017-10-15T07:08:02.818Z,864.00
2017-10-15T07:09:02.850Z,868.00
2017-10-15T07:10:02.884Z,880.00
2017-10-15T07:11:02.923Z,884.00
2017-10-15T07:12:02.970Z,892.00
2017-10-15T07:13:02.991Z,896.00
2017-10-15T07:14:03.025Z,904.00
2017-10-15T07:15:03.060Z,912.00
2017-10-15T07:16:03.106Z,916.00
2017-10-15T07:17:03.130Z,924.00
2017-10-15T07:18:03.168Z,936.00
2017-10-15T07:19:03.273Z,944.00
2017-10-15T07:20:03.235Z,952.00
2017-10-15T07:21:03.269Z,960.00
2017-10-15T07:22:03.309Z,968.00
2017-10-15T07:23:03.348Z,976.00
2017-10-15T07:24:03.374Z,984.00
2017-10-15T07:25:03.414Z,988.00
2017-10-15T07:26:03.457Z,1000.00
2017-10-15T07:27:03.490Z,1004.00
2017-10-15T07:28:03.518Z,1012.00
2017-10-15T07:29:03.552Z,1012.00
2017-10-15T07:30:03.594Z,1020.00
2017-10-15T07:31:03.624Z,1024.00
2017-10-15T07:32:03.664Z,1032.00
2017-10-15T07:33:03.694Z,1036.00
2017-10-15T07:34:03.731Z,1040.00
2017-10-15T07:35:03.767Z,1044.00
2017-10-15T07:36:03.815Z,1052.00
2017-10-15T07:37:03.839Z,1056.00
2017-10-15T07:38:03.871Z,1064.00
2017-10-15T07:39:03.915Z,1064.00
2017-10-15T07:40:03.945Z,1072.00
2017-10-15T07:41:03.980Z,1080.00
2017-10-15T07:42:04.016Z,1084.00
2017-10-15T07:43:04.052Z,1092.00
2017-10-15T07:44:04.098Z,1096.00
2017-10-15T07:45:04.123Z,1104.00
2017-10-15T07:46:04.161Z,1108.00
2017-10-15T07:47:04.195Z,1116.00
2017-10-15T07:48:04.230Z,1120.00
2017-10-15T07:49:04.265Z,1128.00
2017-10-15T07:50:04.302Z,1132.00
2017-10-15T07:51:04.337Z,1136.00
2017-10-15T07:52:04.382Z,1140.00
2017-10-15T07:53:04.414Z,1148.00
2017-10-15T07:54:04.450Z,1152.00
2017-10-15T07:55:04.488Z,1160.00
2017-10-15T07:56:04.518Z,1160.00
2017-10-15T07:57:04.559Z,1164.00
2017-10-15T07:58:04.590Z,1168.00
2017-10-15T07:59:04.628Z,1172.00
2017-10-15T08:00:04.663Z,1172.00
2017-10-15T08:01:04.700Z,1176.00
2017-10-15T08:02:04.742Z,1180.00
2017-10-15T08:03:04.773Z,1184.00
2017-10-15T08:04:04.809Z,1188.00
2017-10-15T08:05:04.849Z,1188.00
2017-10-15T08:06:04.885Z,1192.00
2017-10-15T08:07:04.930Z,1192.00
2017-10-15T08:08:04.963Z,1196.00
2017-10-15T08:09:04.996Z,1200.00
2017-10-15T08:10:05.034Z,1204.00
2017-10-15T08:11:05.068Z,1212.00
2017-10-15T08:12:05.104Z,1212.00
2017-10-15T08:13:05.143Z,1216.00
2017-10-15T08:14:05.178Z,1220.00
2017-10-15T08:15:05.217Z,1228.00
2017-10-15T08:16:05.249Z,1228.00
2017-10-15T08:17:05.293Z,1232.00
2017-10-15T08:18:05.328Z,1236.00
2017-10-15T08:19:05.366Z,1240.00
2017-10-15T08:20:05.398Z,1240.00
2017-10-15T08:21:05.437Z,1244.00
2017-10-15T08:22:05.472Z,1244.00
2017-10-15T08:23:05.511Z,1248.00
2017-10-15T08:24:05.547Z,1248.00
2017-10-15T08:25:05.586Z,1252.00
2017-10-15T08:26:05.622Z,1252.00
2017-10-15T08:27:05.659Z,1256.00
2017-10-15T08:28:05.695Z,1260.00
2017-10-15T08:29:05.738Z,1260.00
2017-10-15T08:30:05.773Z,1264.00
2017-10-15T08:31:05.813Z,1268.00
2017-10-15T08:32:05.847Z,1268.00
2017-10-15T08:33:05.883Z,1276.00
2017-10-15T08:34:05.925Z,1276.00
2017-10-15T08:35:05.967Z,1276.00
2017-10-15T08:36:06.000Z,1280.00
2017-10-15T08:37:06.041Z,1280.00
2017-10-15T08:38:06.073Z,1280.00
2017-10-15T08:39:06.110Z,1288.00
2017-10-15T08:40:06.150Z,1288.00
2017-10-15T08:41:06.187Z,1296.00
2017-10-15T08:42:06.225Z,1300.00
2017-10-15T08:43:06.272Z,1300.00
2017-10-15T08:44:06.301Z,1316.00
2017-10-15T08:45:06.339Z,1304.00
2017-10-15T08:46:06.412Z,1324.00
2017-10-15T08:47:06.423Z,1308.00
2017-10-15T08:48:06.453Z,1316.00
2017-10-15T08:49:06.494Z,1320.00
2017-10-15T08:50:06.527Z,1316.00
2017-10-15T08:51:06.566Z,1324.00
2017-10-15T08:52:06.605Z,1324.00
2017-10-15T08:53:06.647Z,1324.00
2017-10-15T08:54:06.683Z,1324.00
2017-10-15T08:55:06.726Z,1328.00
2017-10-15T08:56:06.760Z,1324.00
2017-10-15T08:57:06.798Z,1332.00
2017-10-15T08:58:06.838Z,1340.00
2017-10-15T08:59:06.878Z,1332.00
2017-10-15T09:00:06.915Z,1336.00
2017-10-15T09:01:06.952Z,1340.00
2017-10-15T09:02:06.995Z,1340.00
2017-10-15T09:03:07.035Z,1336.00
2017-10-15T09:04:07.068Z,1344.00
2017-10-15T09:05:07.110Z,1344.00
2017-10-15T09:06:07.151Z,1348.00
2017-10-15T09:07:07.183Z,1352.00
2017-10-15T09:08:07.222Z,1352.00
2017-10-15T09:09:07.264Z,1348.00
2017-10-15T09:10:07.300Z,1356.00
2017-10-15T09:11:07.344Z,1356.00
2017-10-15T09:12:07.378Z,1352.00
2017-10-15T09:13:07.416Z,1364.00
2017-10-15T09:14:07.455Z,1364.00
2017-10-15T09:15:07.496Z,1356.00
2017-10-15T09:16:07.535Z,1364.00
2017-10-15T09:17:07.585Z,1364.00
2017-10-15T09:18:07.614Z,1368.00
2017-10-15T09:19:07.656Z,1368.00
2017-10-15T09:20:09.363Z,1368.00
2017-10-15T09:21:07.731Z,1372.00
2017-10-15T09:22:07.777Z,1372.00
2017-10-15T09:23:07.812Z,1376.00
2017-10-15T09:24:07.847Z,1376.00
2017-10-15T09:25:07.886Z,1380.00
2017-10-15T09:26:07.929Z,1372.00
2017-10-15T09:27:07.972Z,1376.00
2017-10-15T09:28:08.818Z,1380.00
2017-10-15T09:29:08.044Z,1380.00
2017-10-15T09:30:08.083Z,1380.00
2017-10-15T09:31:08.122Z,1380.00
2017-10-15T09:32:08.171Z,1380.00
2017-10-15T09:33:08.200Z,1380.00
2017-10-15T09:34:08.242Z,1380.00
2017-10-15T09:35:08.279Z,1380.00
2017-10-15T09:36:08.325Z,1384.00
2017-10-15T09:37:08.359Z,1380.00
2017-10-15T09:38:08.399Z,1376.00
2017-10-15T09:39:08.438Z,1392.00
2017-10-15T09:40:08.477Z,1380.00
2017-10-15T09:41:08.520Z,1392.00
2017-10-15T09:42:08.559Z,1376.00
2017-10-15T09:43:08.626Z,1376.00
2017-10-15T09:44:08.641Z,1380.00
2017-10-15T09:45:08.675Z,1384.00
2017-10-15T09:46:08.715Z,1384.00
2017-10-15T09:47:08.765Z,1384.00
2017-10-15T09:48:08.834Z,1376.00
2017-10-15T09:49:08.834Z,1372.00
2017-10-15T09:50:08.886Z,1384.00
2017-10-15T09:51:08.921Z,1380.00
2017-10-15T09:52:08.957Z,1400.00
2017-10-15T09:53:09.000Z,1376.00
2017-10-15T09:54:09.038Z,1380.00
2017-10-15T09:55:09.076Z,1384.00
2017-10-15T09:56:09.119Z,1384.00
2017-10-15T09:57:09.168Z,1384.00
2017-10-15T09:58:09.202Z,1388.00
2017-10-15T09:59:09.239Z,1384.00
2017-10-15T10:00:09.283Z,1396.00
2017-10-15T10:01:09.318Z,1392.00
2017-10-15T10:02:09.357Z,1388.00
2017-10-15T10:03:09.397Z,1396.00
2017-10-15T10:04:09.440Z,1384.00
2017-10-15T10:05:09.477Z,1388.00
2017-10-15T10:06:09.521Z,1396.00
2017-10-15T10:07:09.561Z,1408.00
2017-10-15T10:08:09.598Z,1388.00
2017-10-15T10:09:09.637Z,1388.00
2017-10-15T10:10:09.683Z,1400.00
2017-10-15T10:11:09.720Z,1400.00
2017-10-15T10:12:09.758Z,1404.00
2017-10-15T10:13:09.803Z,1404.00
2017-10-15T10:14:09.838Z,1400.00
2017-10-15T10:15:09.880Z,1404.00
2017-10-15T10:16:09.925Z,1408.00
2017-10-15T10:17:09.963Z,1408.00
2017-10-15T10:18:10.010Z,1408.00
2017-10-15T10:19:10.047Z,1412.00
2017-10-15T10:20:10.083Z,1404.00
2017-10-15T10:21:10.123Z,1408.00
2017-10-15T10:22:10.172Z,1396.00
2017-10-15T10:23:10.206Z,1400.00
2017-10-15T10:24:10.246Z,1404.00
2017-10-15T10:25:10.291Z,1392.00
2017-10-15T10:26:10.324Z,1400.00
2017-10-15T10:27:10.369Z,1420.00
2017-10-15T10:28:10.405Z,1396.00
2017-10-15T10:29:10.446Z,1400.00
2017-10-15T10:30:10.488Z,1400.00
2017-10-15T10:31:10.529Z,1388.00
2017-10-15T10:32:10.583Z,1400.00
2017-10-15T10:33:10.612Z,1400.00
2017-10-15T10:34:10.649Z,1388.00
2017-10-15T10:35:10.698Z,1396.00
2017-10-15T10:36:10.731Z,1396.00
2017-10-15T10:37:10.783Z,1392.00
2017-10-15T10:38:10.820Z,1388.00
2017-10-15T10:39:10.854Z,1400.00
2017-10-15T10:40:10.894Z,1392.00
2017-10-15T10:41:10.934Z,1388.00
2017-10-15T10:42:10.978Z,1388.00
2017-10-15T10:43:11.015Z,1392.00
2017-10-15T10:44:11.058Z,1384.00
2017-10-15T10:45:11.097Z,1384.00
2017-10-15T10:46:11.140Z,1384.00
2017-10-15T10:47:11.180Z,1380.00
2017-10-15T10:48:11.222Z,1380.00
2017-10-15T10:49:11.264Z,1380.00
2017-10-15T10:50:11.302Z,1384.00
2017-10-15T10:51:11.350Z,1404.00
2017-10-15T10:52:11.388Z,1396.00
2017-10-15T10:53:11.446Z,1392.00
2017-10-15T10:54:11.472Z,1396.00
2017-10-15T10:55:11.507Z,1392.00
2017-10-15T10:56:11.549Z,1384.00
2017-10-15T10:57:11.597Z,1388.00
2017-10-15T10:58:11.641Z,1396.00
2017-10-15T10:59:11.672Z,1396.00
2017-10-15T11:00:11.713Z,1392.00
2017-10-15T11:01:11.760Z,1400.00
2017-10-15T11:02:11.798Z,1388.00
2017-10-15T11:03:11.839Z,1392.00
2017-10-15T11:04:11.878Z,1392.00
2017-10-15T11:05:11.920Z,1396.00
2017-10-15T11:06:11.961Z,1400.00
2017-10-15T11:07:12.009Z,1396.00
2017-10-15T11:08:12.043Z,1388.00
2017-10-15T11:09:12.087Z,1384.00
2017-10-15T11:10:12.125Z,1384.00
2017-10-15T11:11:12.166Z,1380.00
2017-10-15T11:12:12.208Z,1376.00
2017-10-15T11:13:12.247Z,1376.00
2017-10-15T11:14:12.290Z,1376.00
2017-10-15T11:15:12.334Z,1376.00
2017-10-15T11:16:12.374Z,1380.00
2017-10-15T11:17:12.418Z,1384.00
2017-10-15T11:18:12.477Z,1376.00
2017-10-15T11:19:12.499Z,1376.00
2017-10-15T11:20:12.544Z,1368.00
2017-10-15T11:21:12.583Z,1384.00
2017-10-15T11:22:12.628Z,1360.00
2017-10-15T11:23:12.664Z,1360.00
2017-10-15T11:24:12.705Z,1372.00
2017-10-15T11:25:12.745Z,1368.00
2017-10-15T11:26:12.787Z,1372.00
2017-10-15T11:27:12.844Z,1368.00
2017-10-15T11:28:12.879Z,1368.00
2017-10-15T11:29:12.912Z,1364.00
2017-10-15T11:30:12.957Z,1360.00
2017-10-15T11:31:12.998Z,1360.00
2017-10-15T11:32:13.039Z,1360.00
2017-10-15T11:33:13.081Z,1360.00
2017-10-15T11:34:13.121Z,1364.00
2017-10-15T11:35:13.165Z,1360.00
2017-10-15T11:36:13.210Z,1360.00
2017-10-15T11:37:13.259Z,1360.00
2017-10-15T11:38:13.289Z,1360.00
2017-10-15T11:39:13.331Z,1360.00
2017-10-15T11:40:13.370Z,1364.00
2017-10-15T11:41:13.416Z,1360.00
2017-10-15T11:42:13.456Z,1360.00
2017-10-15T11:43:13.501Z,1356.00
2017-10-15T11:44:13.538Z,1356.00
2017-10-15T11:45:13.579Z,1356.00
2017-10-15T11:46:13.621Z,1348.00
2017-10-15T11:47:13.663Z,1348.00
2017-10-15T11:48:13.716Z,1356.00
2017-10-15T11:49:13.750Z,1348.00
2017-10-15T11:50:13.789Z,1348.00
2017-10-15T11:51:13.834Z,1344.00
2017-10-15T11:52:13.874Z,1344.00
2017-10-15T11:53:13.915Z,1344.00
2017-10-15T11:54:13.958Z,1344.00
2017-10-15T11:55:14.005Z,1344.00
2017-10-15T11:56:14.044Z,1344.00
2017-10-15T11:57:14.089Z,1344.00
2017-10-15T11:58:14.124Z,1348.00
2017-10-15T11:59:15.901Z,1336.00
2017-10-15T12:00:14.215Z,1336.00
2017-10-15T12:01:14.254Z,1336.00
2017-10-15T12:02:14.303Z,1332.00
2017-10-15T12:03:14.337Z,1328.00
2017-10-15T12:04:14.381Z,1328.00
2017-10-15T12:05:14.420Z,1324.00
2017-10-15T12:06:14.502Z,1328.00
2017-10-15T12:07:14.505Z,1332.00
2017-10-15T12:08:14.547Z,1320.00
2017-10-15T12:09:14.596Z,1324.00
2017-10-15T12:10:14.632Z,1316.00
2017-10-15T12:11:14.692Z,1316.00
2017-10-15T12:12:14.756Z,1312.00
2017-10-15T12:13:14.759Z,1312.00
2017-10-15T12:14:14.804Z,1312.00
2017-10-15T12:15:14.847Z,1316.00
2017-10-15T12:16:14.884Z,1316.00
2017-10-15T12:17:14.927Z,1308.00
2017-10-15T12:18:14.974Z,1308.00
2017-10-15T12:19:15.013Z,1304.00
2017-10-15T12:20:15.055Z,1304.00
2017-10-15T12:21:15.103Z,1304.00
2017-10-15T12:22:15.145Z,1304.00
2017-10-15T12:23:15.184Z,1304.00
2017-10-15T12:24:15.223Z,1300.00
2017-10-15T12:25:15.265Z,1300.00
2017-10-15T12:26:15.309Z,1300.00
2017-10-15T12:27:15.356Z,1296.00
2017-10-15T12:28:15.392Z,1304.00
2017-10-15T12:29:15.439Z,1296.00
2017-10-15T12:30:15.477Z,1292.00
2017-10-15T12:31:15.521Z,1292.00
2017-10-15T12:32:15.567Z,1292.00
2017-10-15T12:33:15.604Z,1292.00
2017-10-15T12:34:15.652Z,1292.00
2017-10-15T12:35:15.706Z,1284.00
2017-10-15T12:36:15.732Z,1284.00
2017-10-15T12:37:15.777Z,1284.00
2017-10-15T12:38:15.822Z,1280.00
2017-10-15T12:39:15.861Z,1272.00
2017-10-15T12:40:15.903Z,1272.00